sensor_id;sensor_type;location;lat;lon;timestamp;temperature;humidity
27633;DHT22;15046;50.930;13.334;2022-11-12T00:00:34;7.60;88.70
27633;DHT22;15046;50.930;13.334;2022-11-12T00:03:00;7.60;88.70
27633;DHT22;15046;50.930;13.334;2022-11-12T00:05:26;7.60;88.80
27633;DHT22;15046;50.930;13.334;2022-11-12T00:07:52;7.60;88.90
27633;DHT22;15046;50.930;13.334;2022-11-12T00:10:18;7.50;88.90
27633;DHT22;15046;50.930;13.334;2022-11-12T00:12:44;7.50;89.10
27633;DHT22;15046;50.930;13.334;2022-11-12T00:15:10;7.50;89.40
27633;DHT22;15046;50.930;13.334;2022-11-12T00:17:37;7.50;89.50
27633;DHT22;15046;50.930;13.334;2022-11-12T00:20:03;7.50;90.10
27633;DHT22;15046;50.930;13.334;2022-11-12T00:22:29;7.50;89.70
27633;DHT22;15046;50.930;13.334;2022-11-12T00:24:55;7.50;89.80
27633;DHT22;15046;50.930;13.334;2022-11-12T00:27:21;7.50;89.90
27633;DHT22;15046;50.930;13.334;2022-11-12T00:29:46;7.50;90.00
27633;DHT22;15046;50.930;13.334;2022-11-12T00:32:12;7.50;90.00
27633;DHT22;15046;50.930;13.334;2022-11-12T00:34:38;7.40;90.00
27633;DHT22;15046;50.930;13.334;2022-11-12T00:37:04;7.40;90.00
27633;DHT22;15046;50.930;13.334;2022-11-12T00:39:31;7.40;90.00
27633;DHT22;15046;50.930;13.334;2022-11-12T00:41:57;7.40;90.10
27633;DHT22;15046;50.930;13.334;2022-11-12T00:44:23;7.40;90.10
27633;DHT22;15046;50.930;13.334;2022-11-12T00:46:49;7.30;90.10
27633;DHT22;15046;50.930;13.334;2022-11-12T00:49:14;7.30;90.10
27633;DHT22;15046;50.930;13.334;2022-11-12T00:51:41;7.30;90.20
27633;DHT22;15046;50.930;13.334;2022-11-12T00:54:07;7.30;90.30
27633;DHT22;15046;50.930;13.334;2022-11-12T00:56:32;7.30;90.30
27633;DHT22;15046;50.930;13.334;2022-11-12T00:58:58;7.30;90.30
27633;DHT22;15046;50.930;13.334;2022-11-12T01:01:25;7.30;90.30
27633;DHT22;15046;50.930;13.334;2022-11-12T01:03:51;7.20;90.30
27633;DHT22;15046;50.930;13.334;2022-11-12T01:06:20;7.20;90.40
27633;DHT22;15046;50.930;13.334;2022-11-12T01:08:47;7.20;90.50
27633;DHT22;15046;50.930;13.334;2022-11-12T01:11:14;7.20;90.50
27633;DHT22;15046;50.930;13.334;2022-11-12T01:13:42;7.20;90.60
27633;DHT22;15046;50.930;13.334;2022-11-12T01:16:11;7.10;90.60
27633;DHT22;15046;50.930;13.334;2022-11-12T01:18:38;7.10;90.60
27633;DHT22;15046;50.930;13.334;2022-11-12T01:21:05;7.10;90.60
27633;DHT22;15046;50.930;13.334;2022-11-12T01:23:33;7.10;90.60
27633;DHT22;15046;50.930;13.334;2022-11-12T01:26:10;7.10;90.70
27633;DHT22;15046;50.930;13.334;2022-11-12T01:28:37;7.10;90.70
27633;DHT22;15046;50.930;13.334;2022-11-12T01:33:44;7.10;90.80
27633;DHT22;15046;50.930;13.334;2022-11-12T01:36:11;7.10;90.70
27633;DHT22;15046;50.930;13.334;2022-11-12T01:38:39;7.10;90.80
27633;DHT22;15046;50.930;13.334;2022-11-12T01:41:06;7.10;90.80
27633;DHT22;15046;50.930;13.334;2022-11-12T01:43:33;7.00;90.80
27633;DHT22;15046;50.930;13.334;2022-11-12T01:46:02;7.00;90.70
27633;DHT22;15046;50.930;13.334;2022-11-12T01:48:35;7.00;90.80
27633;DHT22;15046;50.930;13.334;2022-11-12T01:51:03;7.00;90.80
27633;DHT22;15046;50.930;13.334;2022-11-12T01:53:34;7.00;90.90
27633;DHT22;15046;50.930;13.334;2022-11-12T01:56:03;6.90;90.90
27633;DHT22;15046;50.930;13.334;2022-11-12T01:58:31;6.90;90.90
27633;DHT22;15046;50.930;13.334;2022-11-12T02:00:59;6.90;91.00
27633;DHT22;15046;50.930;13.334;2022-11-12T02:03:25;6.90;91.00
27633;DHT22;15046;50.930;13.334;2022-11-12T02:05:55;6.90;91.00
27633;DHT22;15046;50.930;13.334;2022-11-12T02:08:22;6.80;91.00
27633;DHT22;15046;50.930;13.334;2022-11-12T02:10:49;6.80;90.90
27633;DHT22;15046;50.930;13.334;2022-11-12T02:13:16;6.80;90.90
27633;DHT22;15046;50.930;13.334;2022-11-12T02:16:03;6.80;91.00
27633;DHT22;15046;50.930;13.334;2022-11-12T02:18:29;6.80;91.00
27633;DHT22;15046;50.930;13.334;2022-11-12T02:20:57;6.70;91.00
27633;DHT22;15046;50.930;13.334;2022-11-12T02:23:23;6.70;91.10
27633;DHT22;15046;50.930;13.334;2022-11-12T02:25:49;6.70;91.20
27633;DHT22;15046;50.930;13.334;2022-11-12T02:28:16;6.70;91.30
27633;DHT22;15046;50.930;13.334;2022-11-12T02:30:47;6.60;91.30
27633;DHT22;15046;50.930;13.334;2022-11-12T02:33:13;6.60;91.30
27633;DHT22;15046;50.930;13.334;2022-11-12T02:35:40;6.60;91.40
27633;DHT22;15046;50.930;13.334;2022-11-12T02:38:07;6.60;91.40
27633;DHT22;15046;50.930;13.334;2022-11-12T02:40:33;6.60;91.50
27633;DHT22;15046;50.930;13.334;2022-11-12T02:42:59;6.60;91.60
27633;DHT22;15046;50.930;13.334;2022-11-12T02:45:25;6.50;91.60
27633;DHT22;15046;50.930;13.334;2022-11-12T02:47:52;6.50;91.70
27633;DHT22;15046;50.930;13.334;2022-11-12T02:50:18;6.50;91.70
27633;DHT22;15046;50.930;13.334;2022-11-12T02:52:44;6.40;91.70
27633;DHT22;15046;50.930;13.334;2022-11-12T02:55:11;6.40;91.80
27633;DHT22;15046;50.930;13.334;2022-11-12T02:57:37;6.40;91.80
27633;DHT22;15046;50.930;13.334;2022-11-12T03:00:05;6.40;91.80
27633;DHT22;15046;50.930;13.334;2022-11-12T03:02:31;6.30;91.80
27633;DHT22;15046;50.930;13.334;2022-11-12T03:04:57;6.30;91.80
27633;DHT22;15046;50.930;13.334;2022-11-12T03:07:23;6.30;91.80
27633;DHT22;15046;50.930;13.334;2022-11-12T03:09:48;6.20;91.80
27633;DHT22;15046;50.930;13.334;2022-11-12T03:12:14;6.20;91.80
27633;DHT22;15046;50.930;13.334;2022-11-12T03:14:40;6.20;91.80
27633;DHT22;15046;50.930;13.334;2022-11-12T03:17:06;6.20;91.80
27633;DHT22;15046;50.930;13.334;2022-11-12T03:19:32;6.10;91.80
27633;DHT22;15046;50.930;13.334;2022-11-12T03:21:57;6.10;91.90
27633;DHT22;15046;50.930;13.334;2022-11-12T03:24:23;6.10;91.90
27633;DHT22;15046;50.930;13.334;2022-11-12T03:26:49;6.00;91.90
27633;DHT22;15046;50.930;13.334;2022-11-12T03:29:15;6.00;92.00
27633;DHT22;15046;50.930;13.334;2022-11-12T03:31:41;6.00;92.00
27633;DHT22;15046;50.930;13.334;2022-11-12T03:34:06;5.90;92.10
27633;DHT22;15046;50.930;13.334;2022-11-12T03:36:32;5.90;92.10
27633;DHT22;15046;50.930;13.334;2022-11-12T03:38:58;5.80;92.10
27633;DHT22;15046;50.930;13.334;2022-11-12T03:41:24;5.70;92.20
27633;DHT22;15046;50.930;13.334;2022-11-12T03:43:50;5.70;92.20
27633;DHT22;15046;50.930;13.334;2022-11-12T03:46:16;5.70;92.30
27633;DHT22;15046;50.930;13.334;2022-11-12T03:48:41;5.60;92.30
27633;DHT22;15046;50.930;13.334;2022-11-12T03:51:07;5.70;92.30
27633;DHT22;15046;50.930;13.334;2022-11-12T03:53:33;5.70;92.30
27633;DHT22;15046;50.930;13.334;2022-11-12T03:55:59;5.60;92.30
27633;DHT22;15046;50.930;13.334;2022-11-12T03:58:24;5.60;92.30
27633;DHT22;15046;50.930;13.334;2022-11-12T04:00:50;5.50;92.30
27633;DHT22;15046;50.930;13.334;2022-11-12T04:03:16;5.50;92.40
27633;DHT22;15046;50.930;13.334;2022-11-12T04:05:42;5.50;92.60
27633;DHT22;15046;50.930;13.334;2022-11-12T04:08:26;5.40;92.50
27633;DHT22;15046;50.930;13.334;2022-11-12T04:11:03;5.40;92.60
27633;DHT22;15046;50.930;13.334;2022-11-12T04:13:29;5.40;92.60
27633;DHT22;15046;50.930;13.334;2022-11-12T04:19:11;5.40;92.70
27633;DHT22;15046;50.930;13.334;2022-11-12T04:22:05;5.30;92.80
27633;DHT22;15046;50.930;13.334;2022-11-12T04:24:34;5.30;92.80
27633;DHT22;15046;50.930;13.334;2022-11-12T04:27:20;5.30;92.90
27633;DHT22;15046;50.930;13.334;2022-11-12T04:29:47;5.30;92.80
27633;DHT22;15046;50.930;13.334;2022-11-12T04:32:34;5.20;92.90
27633;DHT22;15046;50.930;13.334;2022-11-12T04:35:01;5.20;93.00
27633;DHT22;15046;50.930;13.334;2022-11-12T04:37:29;5.20;93.00
27633;DHT22;15046;50.930;13.334;2022-11-12T04:42:53;5.20;93.00
27633;DHT22;15046;50.930;13.334;2022-11-12T04:45:39;5.20;93.00
27633;DHT22;15046;50.930;13.334;2022-11-12T04:48:05;5.10;93.00
27633;DHT22;15046;50.930;13.334;2022-11-12T04:50:31;5.10;93.00
27633;DHT22;15046;50.930;13.334;2022-11-12T04:52:57;5.10;93.10
27633;DHT22;15046;50.930;13.334;2022-11-12T04:55:22;5.00;93.10
27633;DHT22;15046;50.930;13.334;2022-11-12T04:57:48;5.10;93.10
27633;DHT22;15046;50.930;13.334;2022-11-12T05:00:14;5.00;93.10
27633;DHT22;15046;50.930;13.334;2022-11-12T05:02:40;5.00;93.20
27633;DHT22;15046;50.930;13.334;2022-11-12T05:05:06;5.00;93.20
27633;DHT22;15046;50.930;13.334;2022-11-12T05:07:32;5.00;93.20
27633;DHT22;15046;50.930;13.334;2022-11-12T05:10:01;4.90;93.30
27633;DHT22;15046;50.930;13.334;2022-11-12T05:12:27;4.90;93.30
27633;DHT22;15046;50.930;13.334;2022-11-12T05:14:52;4.90;93.40
27633;DHT22;15046;50.930;13.334;2022-11-12T05:17:18;4.80;93.40
27633;DHT22;15046;50.930;13.334;2022-11-12T05:19:44;4.80;93.50
27633;DHT22;15046;50.930;13.334;2022-11-12T05:22:10;4.80;93.50
27633;DHT22;15046;50.930;13.334;2022-11-12T05:24:41;4.70;93.60
27633;DHT22;15046;50.930;13.334;2022-11-12T05:27:16;4.70;93.70
27633;DHT22;15046;50.930;13.334;2022-11-12T05:29:42;4.60;93.80
27633;DHT22;15046;50.930;13.334;2022-11-12T05:32:10;4.60;93.90
27633;DHT22;15046;50.930;13.334;2022-11-12T05:34:36;4.60;94.00
27633;DHT22;15046;50.930;13.334;2022-11-12T05:37:03;4.60;94.10
27633;DHT22;15046;50.930;13.334;2022-11-12T05:39:29;4.50;94.20
27633;DHT22;15046;50.930;13.334;2022-11-12T05:41:55;4.50;94.30
27633;DHT22;15046;50.930;13.334;2022-11-12T05:44:21;4.50;94.40
27633;DHT22;15046;50.930;13.334;2022-11-12T05:46:47;4.40;94.60
27633;DHT22;15046;50.930;13.334;2022-11-12T05:49:13;4.40;94.60
27633;DHT22;15046;50.930;13.334;2022-11-12T05:51:39;4.40;94.80
27633;DHT22;15046;50.930;13.334;2022-11-12T05:54:05;4.40;95.30
27633;DHT22;15046;50.930;13.334;2022-11-12T05:56:31;4.30;95.10
27633;DHT22;15046;50.930;13.334;2022-11-12T05:58:57;4.30;95.30
27633;DHT22;15046;50.930;13.334;2022-11-12T06:01:23;4.30;95.40
27633;DHT22;15046;50.930;13.334;2022-11-12T06:03:49;4.30;95.60
27633;DHT22;15046;50.930;13.334;2022-11-12T06:06:15;4.20;95.80
27633;DHT22;15046;50.930;13.334;2022-11-12T06:08:40;4.20;96.00
27633;DHT22;15046;50.930;13.334;2022-11-12T06:11:06;4.20;96.20
27633;DHT22;15046;50.930;13.334;2022-11-12T06:13:32;4.10;96.40
27633;DHT22;15046;50.930;13.334;2022-11-12T06:15:58;4.10;96.70
27633;DHT22;15046;50.930;13.334;2022-11-12T06:18:24;4.10;97.00
27633;DHT22;15046;50.930;13.334;2022-11-12T06:20:50;4.00;97.20
27633;DHT22;15046;50.930;13.334;2022-11-12T06:23:34;4.00;97.50
27633;DHT22;15046;50.930;13.334;2022-11-12T06:26:00;4.00;97.80
27633;DHT22;15046;50.930;13.334;2022-11-12T06:28:26;3.90;98.10
27633;DHT22;15046;50.930;13.334;2022-11-12T06:30:52;3.90;98.30
27633;DHT22;15046;50.930;13.334;2022-11-12T06:33:17;3.90;98.60
27633;DHT22;15046;50.930;13.334;2022-11-12T06:35:43;3.90;98.90
27633;DHT22;15046;50.930;13.334;2022-11-12T06:38:09;3.90;99.30
27633;DHT22;15046;50.930;13.334;2022-11-12T06:40:35;3.90;99.60
27633;DHT22;15046;50.930;13.334;2022-11-12T06:43:01;4.00;99.80
27633;DHT22;15046;50.930;13.334;2022-11-12T06:45:26;4.00;99.90
27633;DHT22;15046;50.930;13.334;2022-11-12T06:47:57;4.00;99.90
27633;DHT22;15046;50.930;13.334;2022-11-12T06:50:22;4.00;99.90
27633;DHT22;15046;50.930;13.334;2022-11-12T06:52:48;4.00;99.90
27633;DHT22;15046;50.930;13.334;2022-11-12T06:55:14;4.00;99.90
27633;DHT22;15046;50.930;13.334;2022-11-12T06:57:40;4.10;99.90
27633;DHT22;15046;50.930;13.334;2022-11-12T07:00:06;4.10;99.90
27633;DHT22;15046;50.930;13.334;2022-11-12T07:02:34;4.20;99.90
27633;DHT22;15046;50.930;13.334;2022-11-12T07:05:00;4.20;99.90
27633;DHT22;15046;50.930;13.334;2022-11-12T07:07:27;4.30;99.90
27633;DHT22;15046;50.930;13.334;2022-11-12T07:09:53;4.30;99.90
27633;DHT22;15046;50.930;13.334;2022-11-12T07:12:20;4.30;99.90
27633;DHT22;15046;50.930;13.334;2022-11-12T07:14:46;4.40;99.90
27633;DHT22;15046;50.930;13.334;2022-11-12T07:17:11;4.50;99.90
27633;DHT22;15046;50.930;13.334;2022-11-12T07:19:37;4.50;99.90
27633;DHT22;15046;50.930;13.334;2022-11-12T07:22:03;4.50;99.90
27633;DHT22;15046;50.930;13.334;2022-11-12T07:24:29;4.60;99.90
27633;DHT22;15046;50.930;13.334;2022-11-12T07:26:54;4.60;99.90
27633;DHT22;15046;50.930;13.334;2022-11-12T07:29:20;4.70;99.90
27633;DHT22;15046;50.930;13.334;2022-11-12T07:31:46;4.70;99.90
27633;DHT22;15046;50.930;13.334;2022-11-12T07:34:11;4.80;99.90
27633;DHT22;15046;50.930;13.334;2022-11-12T07:36:37;4.90;99.90
27633;DHT22;15046;50.930;13.334;2022-11-12T07:39:03;5.00;99.90
27633;DHT22;15046;50.930;13.334;2022-11-12T07:41:29;5.00;99.90
27633;DHT22;15046;50.930;13.334;2022-11-12T07:43:54;5.10;99.90
27633;DHT22;15046;50.930;13.334;2022-11-12T07:46:23;5.20;99.90
27633;DHT22;15046;50.930;13.334;2022-11-12T07:48:49;5.30;99.90
27633;DHT22;15046;50.930;13.334;2022-11-12T07:51:17;5.50;99.90
27633;DHT22;15046;50.930;13.334;2022-11-12T07:53:45;5.60;99.90
27633;DHT22;15046;50.930;13.334;2022-11-12T07:56:15;5.70;99.90
27633;DHT22;15046;50.930;13.334;2022-11-12T07:58:41;5.80;99.90
27633;DHT22;15046;50.930;13.334;2022-11-12T08:01:38;5.90;99.90
27633;DHT22;15046;50.930;13.334;2022-11-12T08:04:07;6.00;99.90
27633;DHT22;15046;50.930;13.334;2022-11-12T08:06:34;6.10;99.90
27633;DHT22;15046;50.930;13.334;2022-11-12T08:09:02;6.20;99.90
27633;DHT22;15046;50.930;13.334;2022-11-12T08:11:29;6.40;99.90
27633;DHT22;15046;50.930;13.334;2022-11-12T08:13:55;6.60;99.90
27633;DHT22;15046;50.930;13.334;2022-11-12T08:16:21;6.70;99.90
27633;DHT22;15046;50.930;13.334;2022-11-12T08:18:47;6.80;99.90
27633;DHT22;15046;50.930;13.334;2022-11-12T08:21:14;6.90;99.90
27633;DHT22;15046;50.930;13.334;2022-11-12T08:23:40;7.00;99.90
27633;DHT22;15046;50.930;13.334;2022-11-12T08:26:11;7.00;99.90
27633;DHT22;15046;50.930;13.334;2022-11-12T08:28:37;7.10;99.90
27633;DHT22;15046;50.930;13.334;2022-11-12T08:31:10;7.00;99.90
27633;DHT22;15046;50.930;13.334;2022-11-12T08:33:36;7.10;99.90
27633;DHT22;15046;50.930;13.334;2022-11-12T08:36:03;7.10;99.90
27633;DHT22;15046;50.930;13.334;2022-11-12T08:38:29;7.10;99.90
27633;DHT22;15046;50.930;13.334;2022-11-12T08:40:59;7.20;99.90
27633;DHT22;15046;50.930;13.334;2022-11-12T08:43:25;7.20;99.90
27633;DHT22;15046;50.930;13.334;2022-11-12T08:45:50;7.40;99.90
27633;DHT22;15046;50.930;13.334;2022-11-12T08:48:16;7.40;99.90
27633;DHT22;15046;50.930;13.334;2022-11-12T08:50:42;7.50;99.90
27633;DHT22;15046;50.930;13.334;2022-11-12T08:53:12;7.60;99.90
27633;DHT22;15046;50.930;13.334;2022-11-12T08:55:38;7.80;99.90
27633;DHT22;15046;50.930;13.334;2022-11-12T08:58:04;8.00;99.90
27633;DHT22;15046;50.930;13.334;2022-11-12T09:00:33;8.10;99.90
27633;DHT22;15046;50.930;13.334;2022-11-12T09:03:00;8.30;99.90
27633;DHT22;15046;50.930;13.334;2022-11-12T09:05:27;8.50;99.80
27633;DHT22;15046;50.930;13.334;2022-11-12T09:08:13;8.70;99.50
27633;DHT22;15046;50.930;13.334;2022-11-12T09:10:39;8.90;99.10
27633;DHT22;15046;50.930;13.334;2022-11-12T09:13:05;9.10;99.00
27633;DHT22;15046;50.930;13.334;2022-11-12T09:15:31;9.30;99.00
27633;DHT22;15046;50.930;13.334;2022-11-12T09:18:03;9.50;99.10
27633;DHT22;15046;50.930;13.334;2022-11-12T09:20:30;9.80;99.10
27633;DHT22;15046;50.930;13.334;2022-11-12T09:23:01;10.10;98.80
27633;DHT22;15046;50.930;13.334;2022-11-12T09:25:27;10.50;98.40
27633;DHT22;15046;50.930;13.334;2022-11-12T09:27:53;11.00;98.00
27633;DHT22;15046;50.930;13.334;2022-11-12T09:30:20;11.50;97.20
27633;DHT22;15046;50.930;13.334;2022-11-12T09:32:45;12.00;96.80
27633;DHT22;15046;50.930;13.334;2022-11-12T09:35:11;12.50;95.90
27633;DHT22;15046;50.930;13.334;2022-11-12T09:37:38;13.10;95.10
27633;DHT22;15046;50.930;13.334;2022-11-12T09:40:05;13.70;94.20
27633;DHT22;15046;50.930;13.334;2022-11-12T09:42:33;14.20;93.10
27633;DHT22;15046;50.930;13.334;2022-11-12T09:45:10;14.80;92.10
27633;DHT22;15046;50.930;13.334;2022-11-12T09:47:42;15.40;91.00
27633;DHT22;15046;50.930;13.334;2022-11-12T09:50:25;15.80;89.90
27633;DHT22;15046;50.930;13.334;2022-11-12T09:52:59;16.30;86.80
27633;DHT22;15046;50.930;13.334;2022-11-12T09:55:35;16.70;84.90
27633;DHT22;15046;50.930;13.334;2022-11-12T09:58:11;17.10;82.60
27633;DHT22;15046;50.930;13.334;2022-11-12T10:00:39;17.50;80.30
27633;DHT22;15046;50.930;13.334;2022-11-12T10:05:54;18.60;76.40
27633;DHT22;15046;50.930;13.334;2022-11-12T10:11:24;20.20;71.50
27633;DHT22;15046;50.930;13.334;2022-11-12T10:14:12;20.90;69.60
27633;DHT22;15046;50.930;13.334;2022-11-12T10:17:11;21.70;66.90
27633;DHT22;15046;50.930;13.334;2022-11-12T10:25:38;24.40;59.70
27633;DHT22;15046;50.930;13.334;2022-11-12T10:28:28;24.90;58.30
27633;DHT22;15046;50.930;13.334;2022-11-12T10:30:59;25.40;56.70
27633;DHT22;15046;50.930;13.334;2022-11-12T10:33:30;26.00;55.60
27633;DHT22;15046;50.930;13.334;2022-11-12T10:38:48;27.60;53.60
27633;DHT22;15046;50.930;13.334;2022-11-12T10:41:20;28.30;52.30
27633;DHT22;15046;50.930;13.334;2022-11-12T10:44:00;28.70;51.20
27633;DHT22;15046;50.930;13.334;2022-11-12T10:46:29;29.10;50.80
27633;DHT22;15046;50.930;13.334;2022-11-12T10:51:39;29.70;49.80
27633;DHT22;15046;50.930;13.334;2022-11-12T10:54:34;30.00;49.10
27633;DHT22;15046;50.930;13.334;2022-11-12T10:57:27;30.30;48.30
27633;DHT22;15046;50.930;13.334;2022-11-12T11:00:07;30.60;48.20
27633;DHT22;15046;50.930;13.334;2022-11-12T11:02:33;30.80;47.30
27633;DHT22;15046;50.930;13.334;2022-11-12T11:04:59;30.90;47.00
27633;DHT22;15046;50.930;13.334;2022-11-12T11:07:25;31.10;46.60
27633;DHT22;15046;50.930;13.334;2022-11-12T11:09:53;31.20;46.00
27633;DHT22;15046;50.930;13.334;2022-11-12T11:12:37;31.40;45.20
27633;DHT22;15046;50.930;13.334;2022-11-12T11:15:21;31.30;44.80
27633;DHT22;15046;50.930;13.334;2022-11-12T11:17:47;31.40;44.90
27633;DHT22;15046;50.930;13.334;2022-11-12T11:20:30;31.60;44.90
27633;DHT22;15046;50.930;13.334;2022-11-12T11:25:42;32.20;43.70
27633;DHT22;15046;50.930;13.334;2022-11-12T11:28:19;32.40;43.60
27633;DHT22;15046;50.930;13.334;2022-11-12T11:31:30;32.60;43.00
27633;DHT22;15046;50.930;13.334;2022-11-12T11:34:23;32.80;42.40
27633;DHT22;15046;50.930;13.334;2022-11-12T11:37:02;33.00;42.70
27633;DHT22;15046;50.930;13.334;2022-11-12T11:40:03;33.10;42.50
27633;DHT22;15046;50.930;13.334;2022-11-12T11:54:03;33.30;40.80
27633;DHT22;15046;50.930;13.334;2022-11-12T11:56:43;33.10;40.80
27633;DHT22;15046;50.930;13.334;2022-11-12T11:59:17;33.10;40.80
27633;DHT22;15046;50.930;13.334;2022-11-12T12:02:21;33.10;40.90
27633;DHT22;15046;50.930;13.334;2022-11-12T12:08:05;33.30;40.40
27633;DHT22;15046;50.930;13.334;2022-11-12T12:10:43;33.20;40.10
27633;DHT22;15046;50.930;13.334;2022-11-12T12:16:26;33.00;39.50
27633;DHT22;15046;50.930;13.334;2022-11-12T12:19:26;32.90;39.10
27633;DHT22;15046;50.930;13.334;2022-11-12T12:21:59;33.00;39.50
27633;DHT22;15046;50.930;13.334;2022-11-12T12:24:34;33.00;39.50
27633;DHT22;15046;50.930;13.334;2022-11-12T12:29:38;32.90;39.20
27633;DHT22;15046;50.930;13.334;2022-11-12T12:32:13;32.90;38.80
27633;DHT22;15046;50.930;13.334;2022-11-12T12:34:43;32.80;38.30
27633;DHT22;15046;50.930;13.334;2022-11-12T12:37:16;32.70;38.20
27633;DHT22;15046;50.930;13.334;2022-11-12T12:39:55;32.60;37.90
27633;DHT22;15046;50.930;13.334;2022-11-12T12:42:45;32.70;38.00
27633;DHT22;15046;50.930;13.334;2022-11-12T12:48:00;32.80;38.10
27633;DHT22;15046;50.930;13.334;2022-11-12T12:50:28;32.80;38.20
27633;DHT22;15046;50.930;13.334;2022-11-12T12:55:50;32.60;38.10
27633;DHT22;15046;50.930;13.334;2022-11-12T12:58:31;32.40;38.20
27633;DHT22;15046;50.930;13.334;2022-11-12T13:01:07;32.10;38.40
27633;DHT22;15046;50.930;13.334;2022-11-12T13:03:48;31.80;38.60
27633;DHT22;15046;50.930;13.334;2022-11-12T13:08:52;31.60;38.30
27633;DHT22;15046;50.930;13.334;2022-11-12T13:40:45;30.70;38.60
27633;DHT22;15046;50.930;13.334;2022-11-12T13:45:57;29.70;39.40
27633;DHT22;15046;50.930;13.334;2022-11-12T13:48:35;28.70;39.60
27633;DHT22;15046;50.930;13.334;2022-11-12T13:53:41;25.90;42.40
27633;DHT22;15046;50.930;13.334;2022-11-12T13:56:10;25.00;43.70
27633;DHT22;15046;50.930;13.334;2022-11-12T13:58:37;24.00;44.90
27633;DHT22;15046;50.930;13.334;2022-11-12T14:01:05;23.00;45.80
27633;DHT22;15046;50.930;13.334;2022-11-12T14:03:44;22.10;46.90
27633;DHT22;15046;50.930;13.334;2022-11-12T14:06:16;21.30;48.30
27633;DHT22;15046;50.930;13.334;2022-11-12T14:14:31;19.30;51.30
27633;DHT22;15046;50.930;13.334;2022-11-12T14:22:27;18.10;53.70
27633;DHT22;15046;50.930;13.334;2022-11-12T14:25:03;17.80;54.20
27633;DHT22;15046;50.930;13.334;2022-11-12T14:30:22;17.10;55.00
27633;DHT22;15046;50.930;13.334;2022-11-12T14:32:56;16.80;55.60
27633;DHT22;15046;50.930;13.334;2022-11-12T14:37:54;16.30;56.90
27633;DHT22;15046;50.930;13.334;2022-11-12T14:40:27;16.00;57.50
27633;DHT22;15046;50.930;13.334;2022-11-12T14:42:54;15.80;58.10
27633;DHT22;15046;50.930;13.334;2022-11-12T14:45:21;15.60;58.40
27633;DHT22;15046;50.930;13.334;2022-11-12T14:47:49;15.30;58.80
27633;DHT22;15046;50.930;13.334;2022-11-12T14:52:47;15.00;59.80
27633;DHT22;15046;50.930;13.334;2022-11-12T14:55:27;14.80;60.20
27633;DHT22;15046;50.930;13.334;2022-11-12T14:57:53;14.50;61.40
27633;DHT22;15046;50.930;13.334;2022-11-12T15:02:55;14.10;62.60
27633;DHT22;15046;50.930;13.334;2022-11-12T15:05:22;13.90;63.40
27633;DHT22;15046;50.930;13.334;2022-11-12T15:10:46;13.70;64.10
27633;DHT22;15046;50.930;13.334;2022-11-12T15:16:08;13.30;64.50
27633;DHT22;15046;50.930;13.334;2022-11-12T15:18:36;13.00;65.40
27633;DHT22;15046;50.930;13.334;2022-11-12T15:23:47;12.80;66.20
27633;DHT22;15046;50.930;13.334;2022-11-12T15:26:30;12.70;66.70
27633;DHT22;15046;50.930;13.334;2022-11-12T15:29:01;12.60;66.90
27633;DHT22;15046;50.930;13.334;2022-11-12T15:31:28;12.60;67.10
27633;DHT22;15046;50.930;13.334;2022-11-12T15:34:27;12.50;67.30
27633;DHT22;15046;50.930;13.334;2022-11-12T15:37:05;12.40;67.60
27633;DHT22;15046;50.930;13.334;2022-11-12T15:39:40;12.30;67.80
27633;DHT22;15046;50.930;13.334;2022-11-12T15:44:43;12.20;68.20
27633;DHT22;15046;50.930;13.334;2022-11-12T15:47:18;12.00;68.40
27633;DHT22;15046;50.930;13.334;2022-11-12T15:49:52;11.80;69.00
27633;DHT22;15046;50.930;13.334;2022-11-12T15:52:19;11.60;69.50
27633;DHT22;15046;50.930;13.334;2022-11-12T15:54:45;11.50;69.70
27633;DHT22;15046;50.930;13.334;2022-11-12T15:57:22;11.50;69.90
27633;DHT22;15046;50.930;13.334;2022-11-12T16:00:04;11.40;70.20
27633;DHT22;15046;50.930;13.334;2022-11-12T16:02:30;11.30;70.60
27633;DHT22;15046;50.930;13.334;2022-11-12T16:04:56;11.30;70.60
27633;DHT22;15046;50.930;13.334;2022-11-12T16:07:22;11.20;70.70
27633;DHT22;15046;50.930;13.334;2022-11-12T16:09:51;11.10;71.00
27633;DHT22;15046;50.930;13.334;2022-11-12T16:12:19;11.00;71.30
27633;DHT22;15046;50.930;13.334;2022-11-12T16:14:45;11.00;71.40
27633;DHT22;15046;50.930;13.334;2022-11-12T16:17:16;10.90;71.60
27633;DHT22;15046;50.930;13.334;2022-11-12T16:19:42;10.80;71.80
27633;DHT22;15046;50.930;13.334;2022-11-12T16:22:08;10.80;71.90
27633;DHT22;15046;50.930;13.334;2022-11-12T16:24:39;10.80;72.10
27633;DHT22;15046;50.930;13.334;2022-11-12T16:27:06;10.70;72.30
27633;DHT22;15046;50.930;13.334;2022-11-12T16:29:33;10.60;72.60
27633;DHT22;15046;50.930;13.334;2022-11-12T16:31:59;10.60;72.60
27633;DHT22;15046;50.930;13.334;2022-11-12T16:34:25;10.40;72.80
27633;DHT22;15046;50.930;13.334;2022-11-12T16:36:51;10.40;73.20
27633;DHT22;15046;50.930;13.334;2022-11-12T16:39:17;10.40;73.30
27633;DHT22;15046;50.930;13.334;2022-11-12T16:41:43;10.30;73.60
27633;DHT22;15046;50.930;13.334;2022-11-12T16:44:08;10.20;73.80
27633;DHT22;15046;50.930;13.334;2022-11-12T16:46:36;10.10;73.80
27633;DHT22;15046;50.930;13.334;2022-11-12T16:49:05;10.00;74.10
27633;DHT22;15046;50.930;13.334;2022-11-12T16:51:31;9.90;74.40
27633;DHT22;15046;50.930;13.334;2022-11-12T16:53:56;9.90;74.50
27633;DHT22;15046;50.930;13.334;2022-11-12T16:56:24;9.80;75.20
27633;DHT22;15046;50.930;13.334;2022-11-12T16:58:50;9.70;75.60
27633;DHT22;15046;50.930;13.334;2022-11-12T17:01:26;9.60;75.20
27633;DHT22;15046;50.930;13.334;2022-11-12T17:03:54;9.60;75.70
27633;DHT22;15046;50.930;13.334;2022-11-12T17:06:21;9.50;76.00
27633;DHT22;15046;50.930;13.334;2022-11-12T17:08:47;9.50;76.10
27633;DHT22;15046;50.930;13.334;2022-11-12T17:11:16;9.50;76.40
27633;DHT22;15046;50.930;13.334;2022-11-12T17:13:42;9.40;76.50
27633;DHT22;15046;50.930;13.334;2022-11-12T17:16:08;9.40;76.70
27633;DHT22;15046;50.930;13.334;2022-11-12T17:18:34;9.40;76.80
27633;DHT22;15046;50.930;13.334;2022-11-12T17:23:36;9.40;77.20
27633;DHT22;15046;50.930;13.334;2022-11-12T17:26:05;9.30;77.20
27633;DHT22;15046;50.930;13.334;2022-11-12T17:28:31;9.30;77.30
27633;DHT22;15046;50.930;13.334;2022-11-12T17:31:02;9.20;77.60
27633;DHT22;15046;50.930;13.334;2022-11-12T17:33:29;9.20;78.10
27633;DHT22;15046;50.930;13.334;2022-11-12T17:36:04;9.20;78.30
27633;DHT22;15046;50.930;13.334;2022-11-12T17:38:30;9.20;78.20
27633;DHT22;15046;50.930;13.334;2022-11-12T17:40:57;9.30;78.30
27633;DHT22;15046;50.930;13.334;2022-11-12T17:43:23;9.30;78.20
27633;DHT22;15046;50.930;13.334;2022-11-12T17:45:51;9.30;78.40